Thetys II — FGTO — position and weather

sailwx.info

Track history (hours):
 
Tides and Currents Weather Stations Pressure Air Temp Water Temp Dewpoint Dewpoint Depression Visibility Wind Speed Wind Dir Waves Ship Positions

Oceanographic research ship Thetys II (France)

Last reported at 2017-Mar-29 16:31 UTC. Time now 2017-Mar-30 00:49 UTC.
Position N 43°17' E 006°38'.

Length 25 m; beam 8 m.

Type: Ship. MMSI: 227212000.

Date/timePositionNaut miles runAvg speedWind from/ knotsBaromVisibWave heightAir tempDewpointWater temp
2017-Mar-29 16:31N 43°17' E 006°38'8 8.7
2017-Mar-29 15:33N 43°13' E 006°48'11 4.5
2017-Mar-29 13:13N 43°03' E 006°51'3 1.8
2017-Mar-29 11:31N 43°06' E 006°51'10 3.3
2017-Mar-29 08:33N 43°15' E 006°48'0 0.2
2017-Mar-29 07:33N 43°15' E 006°48'7 7.2
2017-Mar-29 06:33N 43°17' E 006°38'0 0.0
2017-Mar-29 01:26N 43°16' E 006°38'0 0.0
2017-Mar-28 22:32N 43°16' E 006°38'0 0.0
2017-Mar-28 21:29N 43°16' E 006°38'0 0.0
2017-Mar-28 19:26N 43°16' E 006°38'0 0.0
2017-Mar-28 17:32N 43°16' E 006°38'56 1.1
2017-Mar-26 16:15N 43°18' E 005°21'2 1.9
2017-Mar-26 15:25N 43°19' E 005°21'2 0.2
2017-Mar-26 06:29N 43°18' E 005°21'2 1.6
2017-Mar-26 05:32N 43°19' E 005°21'0 0.0
2017-Mar-26 04:32N 43°19' E 005°21'0 0.0
2017-Mar-26 03:32N 43°19' E 005°21'0 0.0
2017-Mar-26 02:32N 43°19' E 005°21'0 0.0
2017-Mar-26 01:32N 43°19' E 005°21'0 0.0
2017-Mar-26 00:32N 43°19' E 005°21'0 0.0
2017-Mar-25 23:29N 43°19' E 005°21'0 0.0
2017-Mar-25 22:32N 43°19' E 005°21'0 0.0
2017-Mar-25 21:32N 43°19' E 005°21'0 0.0
2017-Mar-25 20:23N 43°19' E 005°21'0 0.0
2017-Mar-25 19:32N 43°19' E 005°21'0 0.0
2017-Mar-25 18:26N 43°19' E 005°21'0 0.0
2017-Mar-25 17:32N 43°19' E 005°21'0 0.0
2017-Mar-25 16:29N 43°19' E 005°21'0 0.0
2017-Mar-25 15:17N 43°19' E 005°21'0 0.0
2017-Mar-25 14:32N 43°19' E 005°21'0 0.0
2017-Mar-25 13:23N 43°19' E 005°21'0 0.0
2017-Mar-25 11:29N 43°19' E 005°21'0 0.0
2017-Mar-25 10:29N 43°19' E 005°21'0 0.0
2017-Mar-25 09:29N 43°19' E 005°21'0 0.0
2017-Mar-25 07:29N 43°19' E 005°21'0 0.0
2017-Mar-25 06:29N 43°19' E 005°21'0 0.0
2017-Mar-25 05:32N 43°19' E 005°21'0 0.0
2017-Mar-25 04:29N 43°19' E 005°21'0 0.0
2017-Mar-25 03:32N 43°19' E 005°21'0 0.0
2017-Mar-25 02:29N 43°19' E 005°21'0 0.0
2017-Mar-25 01:32N 43°19' E 005°21'0 0.0
2017-Mar-25 00:32N 43°19' E 005°21'0 0.0
2017-Mar-24 23:32N 43°19' E 005°21'0 0.0
2017-Mar-24 22:32N 43°19' E 005°21'0 0.0
2017-Mar-24 21:29N 43°19' E 005°21'0 0.0
2017-Mar-24 20:29N 43°19' E 005°21'0 0.0
2017-Mar-24 19:23N 43°19' E 005°21'0 0.0
2017-Mar-24 18:26N 43°19' E 005°21'0 0.0
2017-Mar-24 17:29N 43°19' E 005°21'0 0.0
2017-Mar-24 16:32N 43°19' E 005°21'0 0.0
2017-Mar-24 15:29N 43°19' E 005°21'0 0.0
2017-Mar-24 14:23N 43°19' E 005°21'0 0.0
2017-Mar-24 13:32N 43°19' E 005°21'0 0.0
2017-Mar-24 12:23N 43°19' E 005°21'0 0.0
2017-Mar-24 11:32N 43°19' E 005°21'0 0.0
2017-Mar-24 10:29N 43°19' E 005°21'0 0.0
2017-Mar-24 08:23N 43°19' E 005°21'0 0.0
2017-Mar-24 07:29N 43°19' E 005°21'0 0.0
2017-Mar-24 03:11N 43°19' E 005°21'0 0.0
2017-Mar-24 02:17N 43°19' E 005°21'0 0.0
2017-Mar-24 01:23N 43°19' E 005°21'0 0.0
2017-Mar-24 00:23N 43°19' E 005°21'0 0.0
2017-Mar-23 23:29N 43°19' E 005°21'0 0.0
2017-Mar-23 22:05N 43°19' E 005°21'0 0.0
2017-Mar-23 21:29N 43°19' E 005°21'0 0.0
2017-Mar-23 18:23N 43°19' E 005°21'0 0.0
2017-Mar-23 17:14N 43°19' E 005°21'0 0.0
2017-Mar-23 10:23N 43°19' E 005°21'0 0.2
2017-Mar-23 07:30N 43°19' E 005°22'0 0.1
2017-Mar-23 02:12N 43°19' E 005°21'0 0.0
2017-Mar-23 00:12N 43°19' E 005°21'0 0.0
2017-Mar-22 23:30N 43°19' E 005°21'0 0.0
2017-Mar-22 22:30N 43°19' E 005°21'0 0.0
2017-Mar-22 21:27N 43°19' E 005°21'0 0.0
2017-Mar-22 20:12N 43°19' E 005°21'0 0.0
2017-Mar-22 19:30N 43°19' E 005°21'0 0.0
2017-Mar-22 18:18N 43°19' E 005°21'1 1.8
2017-Mar-22 17:33N 43°18' E 005°21'8 7.7
2017-Mar-22 16:31N 43°11' E 005°15'13 2.1
2017-Mar-22 10:10N 42°58' E 005°15'15 7.5
2017-Mar-22 08:12N 43°12' E 005°16'6 9.8
2017-Mar-22 07:34N 43°18' E 005°21'1 1.3
2017-Mar-22 06:33N 43°19' E 005°21'0 0.0
2017-Mar-22 05:33N 43°19' E 005°21'0 0.0
2017-Mar-22 04:30N 43°19' E 005°21'0 0.0
2017-Mar-22 03:30N 43°19' E 005°21'0 0.0
2017-Mar-22 02:18N 43°19' E 005°21'0 0.0
2017-Mar-22 01:33N 43°19' E 005°21'0 0.0
2017-Mar-22 00:33N 43°19' E 005°21'0 0.0
2017-Mar-21 23:30N 43°19' E 005°21'0 0.0
2017-Mar-21 22:30N 43°19' E 005°21'0 0.0
2017-Mar-21 21:30N 43°19' E 005°21'0 0.0
2017-Mar-21 20:33N 43°19' E 005°21'0 0.0
2017-Mar-21 19:30N 43°19' E 005°21'0 0.0
2017-Mar-21 18:30N 43°19' E 005°21'0 0.0
2017-Mar-21 17:21N 43°19' E 005°21'6 7.5
2017-Mar-21 16:33N 43°14' E 005°17'11 7.5
2017-Mar-21 15:03N 43°03' E 005°22'4 2.2
2017-Mar-21 13:03N 42°59' E 005°25'13 3.3
2017-Mar-21 09:04N 43°11' E 005°18'1 2.1
2017-Mar-21 08:23N 43°12' E 005°16'8 9.1
2017-Mar-21 07:33N 43°18' E 005°22'1 0.9
2017-Mar-21 06:33N 43°19' E 005°21'4 4.2
2017-Mar-21 05:33N 43°15' E 005°19'29 2.9
2017-Mar-20 19:21N 43°05' E 005°57'3 3.9
2017-Mar-20 18:33N 43°06' E 005°53'0 0.0
2017-Mar-20 17:30N 43°06' E 005°53'0 0.0
2017-Mar-20 16:33N 43°06' E 005°53'0 0.0
2017-Mar-20 15:33N 43°06' E 005°53'0 0.0
2017-Mar-20 14:33N 43°06' E 005°53'0 0.0
2017-Mar-20 13:33N 43°06' E 005°53'0 0.0
2017-Mar-20 12:33N 43°06' E 005°53'0 0.0
2017-Mar-20 11:33N 43°06' E 005°53'0 0.0
2017-Mar-20 10:30N 43°06' E 005°53'0 0.0
2017-Mar-20 09:33N 43°06' E 005°53'0 0.0
2017-Mar-20 08:33N 43°06' E 005°53'0 0.0
2017-Mar-20 07:33N 43°06' E 005°53'0 0.0
2017-Mar-20 06:33N 43°06' E 005°53'0 0.0
2017-Mar-20 05:33N 43°06' E 005°53'0 0.0
2017-Mar-20 04:33N 43°06' E 005°53'0 0.0
2017-Mar-20 03:33N 43°06' E 005°53'0 0.0
2017-Mar-20 02:33N 43°06' E 005°53'0 0.0
2017-Mar-20 01:33N 43°06' E 005°53'0 0.0
2017-Mar-20 00:33N 43°06' E 005°53'0 0.0
2017-Mar-19 23:33N 43°06' E 005°53'0 0.0
2017-Mar-19 22:33N 43°06' E 005°53'0 0.0
2017-Mar-19 21:33N 43°06' E 005°53'0 0.0
2017-Mar-19 20:33N 43°06' E 005°53'0 0.0
2017-Mar-19 19:33N 43°06' E 005°53'0 0.0
2017-Mar-19 18:33N 43°06' E 005°53'0 0.0
2017-Mar-19 17:33N 43°06' E 005°53'0 0.0
2017-Mar-19 16:33N 43°06' E 005°53'  
Track history (hours):
 
Tides and Currents Weather Stations Pressure Air Temp Water Temp Dewpoint Dewpoint Depression Visibility Wind Speed Wind Dir Waves Ship Positions

Oceanographic research ship Thetys II (France)

Last reported at 2017-Mar-29 16:31 UTC. Time now 2017-Mar-30 00:49 UTC.
Position N 43°17' E 006°38'.

Length 25 m; beam 8 m.

Type: Ship. MMSI: 227212000.

Date/timePositionNaut miles runAvg speedWind from/ knotsBaromVisibWave heightAir tempDewpointWater temp
2017-Mar-29 16:31N 43°17' E 006°38'8 8.7
2017-Mar-29 15:33N 43°13' E 006°48'11 4.5
2017-Mar-29 13:13N 43°03' E 006°51'3 1.8
2017-Mar-29 11:31N 43°06' E 006°51'10 3.3
2017-Mar-29 08:33N 43°15' E 006°48'0 0.2
2017-Mar-29 07:33N 43°15' E 006°48'7 7.2
2017-Mar-29 06:33N 43°17' E 006°38'0 0.0
2017-Mar-29 01:26N 43°16' E 006°38'0 0.0
2017-Mar-28 22:32N 43°16' E 006°38'0 0.0
2017-Mar-28 21:29N 43°16' E 006°38'0 0.0
2017-Mar-28 19:26N 43°16' E 006°38'0 0.0
2017-Mar-28 17:32N 43°16' E 006°38'56 1.1
2017-Mar-26 16:15N 43°18' E 005°21'2 1.9
2017-Mar-26 15:25N 43°19' E 005°21'2 0.2
2017-Mar-26 06:29N 43°18' E 005°21'2 1.6
2017-Mar-26 05:32N 43°19' E 005°21'0 0.0
2017-Mar-26 04:32N 43°19' E 005°21'0 0.0
2017-Mar-26 03:32N 43°19' E 005°21'0 0.0
2017-Mar-26 02:32N 43°19' E 005°21'0 0.0
2017-Mar-26 01:32N 43°19' E 005°21'0 0.0
2017-Mar-26 00:32N 43°19' E 005°21'0 0.0
2017-Mar-25 23:29N 43°19' E 005°21'0 0.0
2017-Mar-25 22:32N 43°19' E 005°21'0 0.0
2017-Mar-25 21:32N 43°19' E 005°21'0 0.0
2017-Mar-25 20:23N 43°19' E 005°21'0 0.0
2017-Mar-25 19:32N 43°19' E 005°21'0 0.0
2017-Mar-25 18:26N 43°19' E 005°21'0 0.0
2017-Mar-25 17:32N 43°19' E 005°21'0 0.0
2017-Mar-25 16:29N 43°19' E 005°21'0 0.0
2017-Mar-25 15:17N 43°19' E 005°21'0 0.0
2017-Mar-25 14:32N 43°19' E 005°21'0 0.0
2017-Mar-25 13:23N 43°19' E 005°21'0 0.0
2017-Mar-25 11:29N 43°19' E 005°21'0 0.0
2017-Mar-25 10:29N 43°19' E 005°21'0 0.0
2017-Mar-25 09:29N 43°19' E 005°21'0 0.0
2017-Mar-25 07:29N 43°19' E 005°21'0 0.0
2017-Mar-25 06:29N 43°19' E 005°21'0 0.0
2017-Mar-25 05:32N 43°19' E 005°21'0 0.0
2017-Mar-25 04:29N 43°19' E 005°21'0 0.0
2017-Mar-25 03:32N 43°19' E 005°21'0 0.0
2017-Mar-25 02:29N 43°19' E 005°21'0 0.0
2017-Mar-25 01:32N 43°19' E 005°21'0 0.0
2017-Mar-25 00:32N 43°19' E 005°21'0 0.0
2017-Mar-24 23:32N 43°19' E 005°21'0 0.0
2017-Mar-24 22:32N 43°19' E 005°21'0 0.0
2017-Mar-24 21:29N 43°19' E 005°21'0 0.0
2017-Mar-24 20:29N 43°19' E 005°21'0 0.0
2017-Mar-24 19:23N 43°19' E 005°21'0 0.0
2017-Mar-24 18:26N 43°19' E 005°21'0 0.0
2017-Mar-24 17:29N 43°19' E 005°21'0 0.0
2017-Mar-24 16:32N 43°19' E 005°21'0 0.0
2017-Mar-24 15:29N 43°19' E 005°21'0 0.0
2017-Mar-24 14:23N 43°19' E 005°21'0 0.0
2017-Mar-24 13:32N 43°19' E 005°21'0 0.0
2017-Mar-24 12:23N 43°19' E 005°21'0 0.0
2017-Mar-24 11:32N 43°19' E 005°21'0 0.0
2017-Mar-24 10:29N 43°19' E 005°21'0 0.0
2017-Mar-24 08:23N 43°19' E 005°21'0 0.0
2017-Mar-24 07:29N 43°19' E 005°21'0 0.0
2017-Mar-24 03:11N 43°19' E 005°21'0 0.0
2017-Mar-24 02:17N 43°19' E 005°21'0 0.0
2017-Mar-24 01:23N 43°19' E 005°21'0 0.0
2017-Mar-24 00:23N 43°19' E 005°21'0 0.0
2017-Mar-23 23:29N 43°19' E 005°21'0 0.0
2017-Mar-23 22:05N 43°19' E 005°21'0 0.0
2017-Mar-23 21:29N 43°19' E 005°21'0 0.0
2017-Mar-23 18:23N 43°19' E 005°21'0 0.0
2017-Mar-23 17:14N 43°19' E 005°21'0 0.0
2017-Mar-23 10:23N 43°19' E 005°21'0 0.2
2017-Mar-23 07:30N 43°19' E 005°22'0 0.1
2017-Mar-23 02:12N 43°19' E 005°21'0 0.0
2017-Mar-23 00:12N 43°19' E 005°21'0 0.0
2017-Mar-22 23:30N 43°19' E 005°21'0 0.0
2017-Mar-22 22:30N 43°19' E 005°21'0 0.0
2017-Mar-22 21:27N 43°19' E 005°21'0 0.0
2017-Mar-22 20:12N 43°19' E 005°21'0 0.0
2017-Mar-22 19:30N 43°19' E 005°21'0 0.0
2017-Mar-22 18:18N 43°19' E 005°21'1 1.8
2017-Mar-22 17:33N 43°18' E 005°21'8 7.7
2017-Mar-22 16:31N 43°11' E 005°15'13 2.1
2017-Mar-22 10:10N 42°58' E 005°15'15 7.5
2017-Mar-22 08:12N 43°12' E 005°16'6 9.8
2017-Mar-22 07:34N 43°18' E 005°21'1 1.3
2017-Mar-22 06:33N 43°19' E 005°21'0 0.0
2017-Mar-22 05:33N 43°19' E 005°21'0 0.0
2017-Mar-22 04:30N 43°19' E 005°21'0 0.0
2017-Mar-22 03:30N 43°19' E 005°21'0 0.0
2017-Mar-22 02:18N 43°19' E 005°21'0 0.0
2017-Mar-22 01:33N 43°19' E 005°21'0 0.0
2017-Mar-22 00:33N 43°19' E 005°21'0 0.0
2017-Mar-21 23:30N 43°19' E 005°21'0 0.0
2017-Mar-21 22:30N 43°19' E 005°21'0 0.0
2017-Mar-21 21:30N 43°19' E 005°21'0 0.0
2017-Mar-21 20:33N 43°19' E 005°21'0 0.0
2017-Mar-21 19:30N 43°19' E 005°21'0 0.0
2017-Mar-21 18:30N 43°19' E 005°21'0 0.0
2017-Mar-21 17:21N 43°19' E 005°21'6 7.5
2017-Mar-21 16:33N 43°14' E 005°17'11 7.5
2017-Mar-21 15:03N 43°03' E 005°22'4 2.2
2017-Mar-21 13:03N 42°59' E 005°25'13 3.3
2017-Mar-21 09:04N 43°11' E 005°18'1 2.1
2017-Mar-21 08:23N 43°12' E 005°16'8 9.1
2017-Mar-21 07:33N 43°18' E 005°22'1 0.9
2017-Mar-21 06:33N 43°19' E 005°21'4 4.2
2017-Mar-21 05:33N 43°15' E 005°19'29 2.9
2017-Mar-20 19:21N 43°05' E 005°57'3 3.9
2017-Mar-20 18:33N 43°06' E 005°53'0 0.0
2017-Mar-20 17:30N 43°06' E 005°53'0 0.0
2017-Mar-20 16:33N 43°06' E 005°53'0 0.0
2017-Mar-20 15:33N 43°06' E 005°53'0 0.0
2017-Mar-20 14:33N 43°06' E 005°53'0 0.0
2017-Mar-20 13:33N 43°06' E 005°53'0 0.0
2017-Mar-20 12:33N 43°06' E 005°53'0 0.0
2017-Mar-20 11:33N 43°06' E 005°53'0 0.0
2017-Mar-20 10:30N 43°06' E 005°53'0 0.0
2017-Mar-20 09:33N 43°06' E 005°53'0 0.0
2017-Mar-20 08:33N 43°06' E 005°53'0 0.0
2017-Mar-20 07:33N 43°06' E 005°53'0 0.0
2017-Mar-20 06:33N 43°06' E 005°53'0 0.0
2017-Mar-20 05:33N 43°06' E 005°53'0 0.0
2017-Mar-20 04:33N 43°06' E 005°53'0 0.0
2017-Mar-20 03:33N 43°06' E 005°53'0 0.0
2017-Mar-20 02:33N 43°06' E 005°53'0 0.0
2017-Mar-20 01:33N 43°06' E 005°53'0 0.0
2017-Mar-20 00:33N 43°06' E 005°53'0 0.0
2017-Mar-19 23:33N 43°06' E 005°53'0 0.0
2017-Mar-19 22:33N 43°06' E 005°53'0 0.0
2017-Mar-19 21:33N 43°06' E 005°53'0 0.0
2017-Mar-19 20:33N 43°06' E 005°53'0 0.0
2017-Mar-19 19:33N 43°06' E 005°53'0 0.0
2017-Mar-19 18:33N 43°06' E 005°53'0 0.0
2017-Mar-19 17:33N 43°06' E 005°53'0 0.0
2017-Mar-19 16:33N 43°06' E 005°53'  

Dump ship's entire track history